sensor_id;sensor_type;location;lat;lon;timestamp;temperature;humidity
15184;DHT22;7693;49.266;7.104;2023-05-02T05:18:40;8.40;99.90
15184;DHT22;7693;49.266;7.104;2023-05-02T05:21:06;8.60;99.90
15184;DHT22;7693;49.266;7.104;2023-05-02T05:23:33;8.70;99.90
15184;DHT22;7693;49.266;7.104;2023-05-02T05:26:11;8.80;99.90
15184;DHT22;7693;49.266;7.104;2023-05-02T05:28:37;9.00;99.90
15184;DHT22;7693;49.266;7.104;2023-05-02T05:31:06;9.10;99.90
15184;DHT22;7693;49.266;7.104;2023-05-02T05:33:33;9.20;99.90
15184;DHT22;7693;49.266;7.104;2023-05-02T05:36:12;9.30;99.90
15184;DHT22;7693;49.266;7.104;2023-05-02T05:38:38;9.40;99.90
15184;DHT22;7693;49.266;7.104;2023-05-02T05:41:05;9.50;99.90
15184;DHT22;7693;49.266;7.104;2023-05-02T05:43:32;9.60;99.90
15184;DHT22;7693;49.266;7.104;2023-05-02T05:45:58;9.70;99.90
15184;DHT22;7693;49.266;7.104;2023-05-02T05:48:24;9.80;99.90
15184;DHT22;7693;49.266;7.104;2023-05-02T05:50:49;9.90;99.90
15184;DHT22;7693;49.266;7.104;2023-05-02T05:53:17;10.00;99.90
15184;DHT22;7693;49.266;7.104;2023-05-02T05:55:43;10.20;99.90
15184;DHT22;7693;49.266;7.104;2023-05-02T05:58:08;10.30;99.90
15184;DHT22;7693;49.266;7.104;2023-05-02T06:00:35;10.40;99.90
15184;DHT22;7693;49.266;7.104;2023-05-02T06:03:00;10.50;99.90
15184;DHT22;7693;49.266;7.104;2023-05-02T06:05:26;10.60;99.90
15184;DHT22;7693;49.266;7.104;2023-05-02T06:07:52;10.70;99.90
15184;DHT22;7693;49.266;7.104;2023-05-02T06:10:17;10.80;99.90
15184;DHT22;7693;49.266;7.104;2023-05-02T06:12:43;10.90;99.90
15184;DHT22;7693;49.266;7.104;2023-05-02T06:15:09;11.00;99.90
15184;DHT22;7693;49.266;7.104;2023-05-02T06:17:34;11.00;99.90
15184;DHT22;7693;49.266;7.104;2023-05-02T06:20:00;11.20;99.90
15184;DHT22;7693;49.266;7.104;2023-05-02T06:22:25;11.20;99.90
15184;DHT22;7693;49.266;7.104;2023-05-02T06:24:51;11.30;99.90
15184;DHT22;7693;49.266;7.104;2023-05-02T06:27:17;11.30;99.90
15184;DHT22;7693;49.266;7.104;2023-05-02T06:29:42;11.40;99.90
15184;DHT22;7693;49.266;7.104;2023-05-02T06:32:08;11.40;99.90
15184;DHT22;7693;49.266;7.104;2023-05-02T06:34:34;11.50;99.90
15184;DHT22;7693;49.266;7.104;2023-05-02T06:37:00;11.50;99.90
15184;DHT22;7693;49.266;7.104;2023-05-02T06:39:25;11.60;99.90
15184;DHT22;7693;49.266;7.104;2023-05-02T06:41:56;11.70;99.90
15184;DHT22;7693;49.266;7.104;2023-05-02T06:44:25;11.70;99.90
15184;DHT22;7693;49.266;7.104;2023-05-02T06:46:50;11.80;99.90
15184;DHT22;7693;49.266;7.104;2023-05-02T06:49:16;11.90;99.90
15184;DHT22;7693;49.266;7.104;2023-05-02T06:51:42;12.10;99.90
15184;DHT22;7693;49.266;7.104;2023-05-02T06:54:07;12.10;99.90
15184;DHT22;7693;49.266;7.104;2023-05-02T06:56:33;12.20;99.90
15184;DHT22;7693;49.266;7.104;2023-05-02T06:58:59;12.30;99.90
15184;DHT22;7693;49.266;7.104;2023-05-02T07:01:25;12.40;99.90
15184;DHT22;7693;49.266;7.104;2023-05-02T07:03:50;12.60;99.90
15184;DHT22;7693;49.266;7.104;2023-05-02T07:06:16;12.70;99.90
15184;DHT22;7693;49.266;7.104;2023-05-02T07:08:42;12.80;99.90
15184;DHT22;7693;49.266;7.104;2023-05-02T07:11:08;12.90;99.90
15184;DHT22;7693;49.266;7.104;2023-05-02T07:13:33;13.10;99.90
15184;DHT22;7693;49.266;7.104;2023-05-02T07:15:59;13.10;99.90
15184;DHT22;7693;49.266;7.104;2023-05-02T07:18:25;13.20;99.90
15184;DHT22;7693;49.266;7.104;2023-05-02T07:20:50;13.40;99.90
15184;DHT22;7693;49.266;7.104;2023-05-02T07:23:16;13.50;99.90
15184;DHT22;7693;49.266;7.104;2023-05-02T07:25:42;13.60;99.90
15184;DHT22;7693;49.266;7.104;2023-05-02T07:28:07;13.80;99.90
15184;DHT22;7693;49.266;7.104;2023-05-02T07:30:33;13.90;99.90
15184;DHT22;7693;49.266;7.104;2023-05-02T07:32:58;13.90;99.90
15184;DHT22;7693;49.266;7.104;2023-05-02T07:35:24;14.00;99.90
15184;DHT22;7693;49.266;7.104;2023-05-02T07:37:50;13.90;99.90
15184;DHT22;7693;49.266;7.104;2023-05-02T07:40:16;13.80;99.90
15184;DHT22;7693;49.266;7.104;2023-05-02T07:42:41;13.70;99.90
15184;DHT22;7693;49.266;7.104;2023-05-02T07:45:07;13.70;99.90
15184;DHT22;7693;49.266;7.104;2023-05-02T07:47:33;13.60;99.90
15184;DHT22;7693;49.266;7.104;2023-05-02T07:49:59;13.50;99.90
15184;DHT22;7693;49.266;7.104;2023-05-02T07:52:25;13.50;99.90
15184;DHT22;7693;49.266;7.104;2023-05-02T07:54:50;13.50;99.90
15184;DHT22;7693;49.266;7.104;2023-05-02T07:57:17;13.50;99.90
15184;DHT22;7693;49.266;7.104;2023-05-02T07:59:43;13.60;99.90
15184;DHT22;7693;49.266;7.104;2023-05-02T08:02:08;13.60;99.90
15184;DHT22;7693;49.266;7.104;2023-05-02T08:04:35;13.60;99.90
15184;DHT22;7693;49.266;7.104;2023-05-02T08:07:00;13.70;99.90
15184;DHT22;7693;49.266;7.104;2023-05-02T08:09:26;13.70;99.90
15184;DHT22;7693;49.266;7.104;2023-05-02T08:11:52;13.80;99.90
15184;DHT22;7693;49.266;7.104;2023-05-02T08:14:17;14.00;99.90
15184;DHT22;7693;49.266;7.104;2023-05-02T08:16:43;14.00;99.90
15184;DHT22;7693;49.266;7.104;2023-05-02T08:19:08;13.90;99.90
15184;DHT22;7693;49.266;7.104;2023-05-02T08:21:35;13.90;99.90
15184;DHT22;7693;49.266;7.104;2023-05-02T08:24:00;13.90;99.90
15184;DHT22;7693;49.266;7.104;2023-05-02T08:26:26;13.90;99.90
15184;DHT22;7693;49.266;7.104;2023-05-02T08:28:52;14.00;99.90
15184;DHT22;7693;49.266;7.104;2023-05-02T08:31:18;14.10;99.90
15184;DHT22;7693;49.266;7.104;2023-05-02T08:33:44;14.20;99.90
15184;DHT22;7693;49.266;7.104;2023-05-02T08:36:11;14.20;99.90
15184;DHT22;7693;49.266;7.104;2023-05-02T08:38:37;14.30;99.90
15184;DHT22;7693;49.266;7.104;2023-05-02T08:41:02;14.30;99.90
15184;DHT22;7693;49.266;7.104;2023-05-02T08:43:34;14.30;99.90
15184;DHT22;7693;49.266;7.104;2023-05-02T08:46:01;14.30;99.90
15184;DHT22;7693;49.266;7.104;2023-05-02T08:48:30;14.20;99.90
15184;DHT22;7693;49.266;7.104;2023-05-02T08:50:56;14.20;99.90
15184;DHT22;7693;49.266;7.104;2023-05-02T08:53:24;14.20;99.90
15184;DHT22;7693;49.266;7.104;2023-05-02T08:55:50;14.20;99.90
15184;DHT22;7693;49.266;7.104;2023-05-02T08:58:16;14.20;99.90
15184;DHT22;7693;49.266;7.104;2023-05-02T09:00:41;14.20;99.90
15184;DHT22;7693;49.266;7.104;2023-05-02T09:06:05;14.20;99.90
15184;DHT22;7693;49.266;7.104;2023-05-02T09:08:32;14.10;99.90
15184;DHT22;7693;49.266;7.104;2023-05-02T09:10:58;14.10;99.90
15184;DHT22;7693;49.266;7.104;2023-05-02T09:15:58;14.10;99.90
15184;DHT22;7693;49.266;7.104;2023-05-02T09:18:30;14.00;99.90
15184;DHT22;7693;49.266;7.104;2023-05-02T09:21:00;14.10;99.90
15184;DHT22;7693;49.266;7.104;2023-05-02T09:26:09;14.00;99.90
15184;DHT22;7693;49.266;7.104;2023-05-02T09:28:50;14.00;99.90
15184;DHT22;7693;49.266;7.104;2023-05-02T09:33:46;13.80;99.90
15184;DHT22;7693;49.266;7.104;2023-05-02T09:36:14;13.80;99.90
15184;DHT22;7693;49.266;7.104;2023-05-02T09:38:41;13.80;99.90
15184;DHT22;7693;49.266;7.104;2023-05-02T09:41:07;13.70;99.90
15184;DHT22;7693;49.266;7.104;2023-05-02T09:43:33;13.70;99.90
15184;DHT22;7693;49.266;7.104;2023-05-02T09:46:01;13.70;99.90
15184;DHT22;7693;49.266;7.104;2023-05-02T09:48:28;13.70;99.90
15184;DHT22;7693;49.266;7.104;2023-05-02T09:50:54;13.70;99.90
15184;DHT22;7693;49.266;7.104;2023-05-02T09:53:20;13.80;99.90
15184;DHT22;7693;49.266;7.104;2023-05-02T09:55:46;13.90;99.90
15184;DHT22;7693;49.266;7.104;2023-05-02T09:58:22;14.00;99.90
15184;DHT22;7693;49.266;7.104;2023-05-02T10:00:49;14.20;99.90
15184;DHT22;7693;49.266;7.104;2023-05-02T10:03:16;14.30;99.90
15184;DHT22;7693;49.266;7.104;2023-05-02T10:05:44;14.40;99.90
15184;DHT22;7693;49.266;7.104;2023-05-02T10:08:10;14.50;99.90
15184;DHT22;7693;49.266;7.104;2023-05-02T10:10:40;14.60;99.90
15184;DHT22;7693;49.266;7.104;2023-05-02T10:13:09;14.60;99.90
15184;DHT22;7693;49.266;7.104;2023-05-02T10:15:42;14.70;99.90
15184;DHT22;7693;49.266;7.104;2023-05-02T10:18:11;14.80;99.90
15184;DHT22;7693;49.266;7.104;2023-05-02T12:32:09;18.10;99.90
15184;DHT22;7693;49.266;7.104;2023-05-02T12:34:35;18.30;99.90
15184;DHT22;7693;49.266;7.104;2023-05-02T12:37:02;18.50;99.90
15184;DHT22;7693;49.266;7.104;2023-05-02T12:39:38;18.70;99.90
15184;DHT22;7693;49.266;7.104;2023-05-02T12:42:15;18.80;99.90
15184;DHT22;7693;49.266;7.104;2023-05-02T12:44:45;18.80;99.90
15184;DHT22;7693;49.266;7.104;2023-05-02T12:47:14;19.00;99.90
15184;DHT22;7693;49.266;7.104;2023-05-02T12:49:56;19.40;99.90
15184;DHT22;7693;49.266;7.104;2023-05-02T12:52:49;19.50;99.90
15184;DHT22;7693;49.266;7.104;2023-05-02T12:57:41;19.30;99.90
15184;DHT22;7693;49.266;7.104;2023-05-02T13:00:07;19.30;99.90
15184;DHT22;7693;49.266;7.104;2023-05-02T13:02:32;19.40;99.90
15184;DHT22;7693;49.266;7.104;2023-05-02T13:04:58;19.30;99.90
15184;DHT22;7693;49.266;7.104;2023-05-02T13:07:23;19.20;99.90
15184;DHT22;7693;49.266;7.104;2023-05-02T13:09:49;19.10;99.90
15184;DHT22;7693;49.266;7.104;2023-05-02T13:12:15;19.20;99.90
15184;DHT22;7693;49.266;7.104;2023-05-02T13:14:43;19.20;99.90
15184;DHT22;7693;49.266;7.104;2023-05-02T13:17:09;19.10;99.90
15184;DHT22;7693;49.266;7.104;2023-05-02T13:19:34;19.10;99.90
15184;DHT22;7693;49.266;7.104;2023-05-02T13:22:00;19.00;99.90
15184;DHT22;7693;49.266;7.104;2023-05-02T13:24:26;19.00;99.90
15184;DHT22;7693;49.266;7.104;2023-05-02T13:26:51;18.80;99.90
15184;DHT22;7693;49.266;7.104;2023-05-02T13:29:17;18.70;99.90
15184;DHT22;7693;49.266;7.104;2023-05-02T13:31:42;18.60;99.90
15184;DHT22;7693;49.266;7.104;2023-05-02T13:34:08;18.50;99.90
15184;DHT22;7693;49.266;7.104;2023-05-02T13:36:34;18.40;99.90
15184;DHT22;7693;49.266;7.104;2023-05-02T13:39:00;18.30;99.90
15184;DHT22;7693;49.266;7.104;2023-05-02T13:41:26;18.30;99.90
15184;DHT22;7693;49.266;7.104;2023-05-02T13:43:52;18.20;99.90
15184;DHT22;7693;49.266;7.104;2023-05-02T13:46:18;18.30;99.90
15184;DHT22;7693;49.266;7.104;2023-05-02T13:48:43;18.30;99.90
15184;DHT22;7693;49.266;7.104;2023-05-02T13:51:09;18.40;99.90
15184;DHT22;7693;49.266;7.104;2023-05-02T13:53:34;18.40;99.90
15184;DHT22;7693;49.266;7.104;2023-05-02T13:56:00;18.30;99.90
15184;DHT22;7693;49.266;7.104;2023-05-02T13:58:26;18.10;99.90
15184;DHT22;7693;49.266;7.104;2023-05-02T14:00:51;18.10;99.90
15184;DHT22;7693;49.266;7.104;2023-05-02T14:03:18;18.10;99.90
15184;DHT22;7693;49.266;7.104;2023-05-02T14:05:44;18.00;99.90
15184;DHT22;7693;49.266;7.104;2023-05-02T14:08:10;18.10;99.90
15184;DHT22;7693;49.266;7.104;2023-05-02T14:10:36;18.20;99.90
15184;DHT22;7693;49.266;7.104;2023-05-02T14:13:05;18.40;99.90
15184;DHT22;7693;49.266;7.104;2023-05-02T14:15:30;18.50;99.90
15184;DHT22;7693;49.266;7.104;2023-05-02T14:17:57;18.50;99.90
15184;DHT22;7693;49.266;7.104;2023-05-02T14:20:22;18.40;99.90
15184;DHT22;7693;49.266;7.104;2023-05-02T14:22:48;18.20;99.90
15184;DHT22;7693;49.266;7.104;2023-05-02T14:25:14;18.00;99.90
15184;DHT22;7693;49.266;7.104;2023-05-02T14:27:40;17.70;99.90
15184;DHT22;7693;49.266;7.104;2023-05-02T14:30:07;17.40;99.90
15184;DHT22;7693;49.266;7.104;2023-05-02T14:32:33;17.00;99.90
15184;DHT22;7693;49.266;7.104;2023-05-02T14:34:58;16.80;99.90
15184;DHT22;7693;49.266;7.104;2023-05-02T14:37:24;16.70;99.90
15184;DHT22;7693;49.266;7.104;2023-05-02T14:39:50;16.60;99.90
15184;DHT22;7693;49.266;7.104;2023-05-02T14:42:20;16.50;99.90
15184;DHT22;7693;49.266;7.104;2023-05-02T14:44:45;16.60;99.90
15184;DHT22;7693;49.266;7.104;2023-05-02T14:47:11;16.60;99.90
15184;DHT22;7693;49.266;7.104;2023-05-02T14:49:36;16.70;99.90
15184;DHT22;7693;49.266;7.104;2023-05-02T14:52:02;16.80;99.90
15184;DHT22;7693;49.266;7.104;2023-05-02T14:54:28;16.80;99.90
15184;DHT22;7693;49.266;7.104;2023-05-02T14:56:54;17.00;99.90
15184;DHT22;7693;49.266;7.104;2023-05-02T14:59:20;17.20;99.90
15184;DHT22;7693;49.266;7.104;2023-05-02T15:01:46;17.40;99.90
15184;DHT22;7693;49.266;7.104;2023-05-02T15:04:11;17.80;99.90
15184;DHT22;7693;49.266;7.104;2023-05-02T15:06:37;18.30;99.90
15184;DHT22;7693;49.266;7.104;2023-05-02T15:09:04;18.50;99.90
15184;DHT22;7693;49.266;7.104;2023-05-02T15:11:30;18.70;99.90
15184;DHT22;7693;49.266;7.104;2023-05-02T15:13:55;18.90;99.90
15184;DHT22;7693;49.266;7.104;2023-05-02T15:16:22;18.90;99.90
15184;DHT22;7693;49.266;7.104;2023-05-02T15:18:48;18.60;99.90
15184;DHT22;7693;49.266;7.104;2023-05-02T15:21:13;18.50;99.90
15184;DHT22;7693;49.266;7.104;2023-05-02T15:23:39;18.30;99.90
15184;DHT22;7693;49.266;7.104;2023-05-02T15:26:04;18.20;99.90
15184;DHT22;7693;49.266;7.104;2023-05-02T15:28:30;18.20;99.90
15184;DHT22;7693;49.266;7.104;2023-05-02T15:30:56;18.20;99.90
15184;DHT22;7693;49.266;7.104;2023-05-02T15:33:21;18.20;99.90
15184;DHT22;7693;49.266;7.104;2023-05-02T15:35:55;18.10;99.90
15184;DHT22;7693;49.266;7.104;2023-05-02T15:38:22;17.90;99.90
15184;DHT22;7693;49.266;7.104;2023-05-02T15:40:57;17.80;99.90
15184;DHT22;7693;49.266;7.104;2023-05-02T15:43:24;17.70;99.90
15184;DHT22;7693;49.266;7.104;2023-05-02T15:45:55;17.90;99.90
15184;DHT22;7693;49.266;7.104;2023-05-02T15:48:21;18.00;99.90
15184;DHT22;7693;49.266;7.104;2023-05-02T15:50:47;18.10;99.90
15184;DHT22;7693;49.266;7.104;2023-05-02T15:53:14;18.20;99.90
15184;DHT22;7693;49.266;7.104;2023-05-02T15:55:41;18.40;99.90
15184;DHT22;7693;49.266;7.104;2023-05-02T15:58:08;18.70;99.90
15184;DHT22;7693;49.266;7.104;2023-05-02T16:00:34;19.10;99.90
15184;DHT22;7693;49.266;7.104;2023-05-02T16:03:00;19.40;99.90
15184;DHT22;7693;49.266;7.104;2023-05-02T16:05:26;19.60;99.90
15184;DHT22;7693;49.266;7.104;2023-05-02T16:07:51;19.80;99.90
15184;DHT22;7693;49.266;7.104;2023-05-02T16:10:17;20.10;99.90
15184;DHT22;7693;49.266;7.104;2023-05-02T16:12:43;20.30;99.90
15184;DHT22;7693;49.266;7.104;2023-05-02T16:15:08;20.40;99.90
15184;DHT22;7693;49.266;7.104;2023-05-02T16:17:34;20.30;99.90
15184;DHT22;7693;49.266;7.104;2023-05-02T16:20:00;20.40;99.90
15184;DHT22;7693;49.266;7.104;2023-05-02T16:22:25;20.40;99.90
15184;DHT22;7693;49.266;7.104;2023-05-02T16:24:53;20.10;99.70
15184;DHT22;7693;49.266;7.104;2023-05-02T16:27:18;19.90;99.90
15184;DHT22;7693;49.266;7.104;2023-05-02T16:29:44;20.00;99.90
15184;DHT22;7693;49.266;7.104;2023-05-02T16:32:10;20.10;99.90
15184;DHT22;7693;49.266;7.104;2023-05-02T16:34:35;20.30;99.90
15184;DHT22;7693;49.266;7.104;2023-05-02T16:37:02;20.50;99.90
15184;DHT22;7693;49.266;7.104;2023-05-02T16:39:28;20.50;99.90
15184;DHT22;7693;49.266;7.104;2023-05-02T16:41:53;20.50;99.90
15184;DHT22;7693;49.266;7.104;2023-05-02T16:44:19;20.90;99.90
15184;DHT22;7693;49.266;7.104;2023-05-02T16:46:44;21.40;99.90
15184;DHT22;7693;49.266;7.104;2023-05-02T16:49:10;21.80;99.90
15184;DHT22;7693;49.266;7.104;2023-05-02T16:51:36;21.70;99.90
15184;DHT22;7693;49.266;7.104;2023-05-02T16:54:01;21.40;99.90
15184;DHT22;7693;49.266;7.104;2023-05-02T16:56:27;21.10;99.90
15184;DHT22;7693;49.266;7.104;2023-05-02T16:58:53;21.10;99.90
15184;DHT22;7693;49.266;7.104;2023-05-02T17:01:20;21.30;99.90
15184;DHT22;7693;49.266;7.104;2023-05-02T17:03:46;21.20;99.70
15184;DHT22;7693;49.266;7.104;2023-05-02T17:06:12;20.80;98.50
15184;DHT22;7693;49.266;7.104;2023-05-02T17:08:37;20.50;98.10
15184;DHT22;7693;49.266;7.104;2023-05-02T17:11:03;20.20;98.50
15184;DHT22;7693;49.266;7.104;2023-05-02T17:13:30;20.10;98.50
15184;DHT22;7693;49.266;7.104;2023-05-02T17:15:56;20.20;99.50
15184;DHT22;7693;49.266;7.104;2023-05-02T17:18:22;20.60;99.90
15184;DHT22;7693;49.266;7.104;2023-05-02T17:20:48;21.00;99.90
15184;DHT22;7693;49.266;7.104;2023-05-02T17:23:14;21.30;99.90
15184;DHT22;7693;49.266;7.104;2023-05-02T17:25:40;21.80;99.90
15184;DHT22;7693;49.266;7.104;2023-05-02T17:28:06;22.20;99.90
15184;DHT22;7693;49.266;7.104;2023-05-02T17:30:31;22.20;99.40
15184;DHT22;7693;49.266;7.104;2023-05-02T17:32:58;21.60;96.80
15184;DHT22;7693;49.266;7.104;2023-05-02T17:35:24;21.00;96.20
15184;DHT22;7693;49.266;7.104;2023-05-02T17:37:50;20.40;96.10
15184;DHT22;7693;49.266;7.104;2023-05-02T17:40:15;19.90;95.90
15184;DHT22;7693;49.266;7.104;2023-05-02T17:42:42;19.60;96.00
15184;DHT22;7693;49.266;7.104;2023-05-02T17:45:09;19.30;96.00
15184;DHT22;7693;49.266;7.104;2023-05-02T17:47:35;19.00;96.00
15184;DHT22;7693;49.266;7.104;2023-05-02T17:50:01;18.80;96.00
15184;DHT22;7693;49.266;7.104;2023-05-02T17:52:29;18.60;96.00
15184;DHT22;7693;49.266;7.104;2023-05-02T17:54:55;18.40;96.00
15184;DHT22;7693;49.266;7.104;2023-05-02T17:57:20;18.30;96.00
15184;DHT22;7693;49.266;7.104;2023-05-02T17:59:46;18.20;96.00
15184;DHT22;7693;49.266;7.104;2023-05-02T18:02:12;18.10;96.10
15184;DHT22;7693;49.266;7.104;2023-05-02T18:04:38;18.00;95.90
15184;DHT22;7693;49.266;7.104;2023-05-02T18:07:03;17.90;96.00
15184;DHT22;7693;49.266;7.104;2023-05-02T18:09:29;17.80;96.00
15184;DHT22;7693;49.266;7.104;2023-05-02T18:11:54;17.80;95.80
15184;DHT22;7693;49.266;7.104;2023-05-02T18:14:22;17.70;95.80
15184;DHT22;7693;49.266;7.104;2023-05-02T18:16:48;17.50;95.60
15184;DHT22;7693;49.266;7.104;2023-05-02T18:19:14;17.40;95.60
15184;DHT22;7693;49.266;7.104;2023-05-02T18:21:40;17.30;95.70
15184;DHT22;7693;49.266;7.104;2023-05-02T18:24:06;17.20;95.80
15184;DHT22;7693;49.266;7.104;2023-05-02T18:26:32;17.10;95.60
15184;DHT22;7693;49.266;7.104;2023-05-02T18:28:57;17.00;95.60
15184;DHT22;7693;49.266;7.104;2023-05-02T18:31:23;16.90;95.70
15184;DHT22;7693;49.266;7.104;2023-05-02T18:33:49;16.80;95.70
15184;DHT22;7693;49.266;7.104;2023-05-02T18:36:15;16.70;95.60
15184;DHT22;7693;49.266;7.104;2023-05-02T18:38:45;16.60;95.70
15184;DHT22;7693;49.266;7.104;2023-05-02T18:41:11;16.60;95.80
15184;DHT22;7693;49.266;7.104;2023-05-02T18:46:06;16.40;95.70
15184;DHT22;7693;49.266;7.104;2023-05-02T18:48:32;16.30;95.70
15184;DHT22;7693;49.266;7.104;2023-05-02T18:50:57;16.20;95.70
15184;DHT22;7693;49.266;7.104;2023-05-02T18:53:23;16.10;95.70
15184;DHT22;7693;49.266;7.104;2023-05-02T18:55:54;16.00;95.70
15184;DHT22;7693;49.266;7.104;2023-05-02T18:58:21;15.90;95.80
15184;DHT22;7693;49.266;7.104;2023-05-02T19:00:47;15.80;95.80
15184;DHT22;7693;49.266;7.104;2023-05-02T19:03:12;15.70;95.80
15184;DHT22;7693;49.266;7.104;2023-05-02T19:05:38;15.60;95.80
15184;DHT22;7693;49.266;7.104;2023-05-02T19:08:05;15.60;95.90
15184;DHT22;7693;49.266;7.104;2023-05-02T19:10:31;15.40;95.80
15184;DHT22;7693;49.266;7.104;2023-05-02T19:12:57;15.40;95.90
15184;DHT22;7693;49.266;7.104;2023-05-02T19:15:22;15.30;95.90
15184;DHT22;7693;49.266;7.104;2023-05-02T19:17:51;15.20;95.90
15184;DHT22;7693;49.266;7.104;2023-05-02T19:20:21;15.10;96.00
15184;DHT22;7693;49.266;7.104;2023-05-02T19:22:47;15.00;95.90
15184;DHT22;7693;49.266;7.104;2023-05-02T19:25:13;14.90;96.00
15184;DHT22;7693;49.266;7.104;2023-05-02T19:27:39;14.90;96.10
15184;DHT22;7693;49.266;7.104;2023-05-02T19:30:06;14.80;96.10
15184;DHT22;7693;49.266;7.104;2023-05-02T19:32:34;14.80;96.10
15184;DHT22;7693;49.266;7.104;2023-05-02T19:35:00;14.70;96.00
15184;DHT22;7693;49.266;7.104;2023-05-02T19:37:26;14.60;96.00
15184;DHT22;7693;49.266;7.104;2023-05-02T19:39:52;14.50;95.90
15184;DHT22;7693;49.266;7.104;2023-05-02T19:42:17;14.40;95.90
15184;DHT22;7693;49.266;7.104;2023-05-02T19:44:43;14.30;95.90
15184;DHT22;7693;49.266;7.104;2023-05-02T19:47:09;14.20;95.90
15184;DHT22;7693;49.266;7.104;2023-05-02T19:49:34;14.10;95.90
15184;DHT22;7693;49.266;7.104;2023-05-02T19:52:00;14.00;96.00
15184;DHT22;7693;49.266;7.104;2023-05-02T19:54:25;13.90;96.00
15184;DHT22;7693;49.266;7.104;2023-05-02T19:56:51;13.90;95.90
15184;DHT22;7693;49.266;7.104;2023-05-02T19:59:16;13.80;95.90
15184;DHT22;7693;49.266;7.104;2023-05-02T20:01:42;13.60;95.80
15184;DHT22;7693;49.266;7.104;2023-05-02T20:04:08;13.60;95.70
15184;DHT22;7693;49.266;7.104;2023-05-02T20:06:34;13.40;95.80
15184;DHT22;7693;49.266;7.104;2023-05-02T20:09:00;13.40;95.90
15184;DHT22;7693;49.266;7.104;2023-05-02T20:11:26;13.30;95.90
15184;DHT22;7693;49.266;7.104;2023-05-02T20:13:51;13.30;96.00
15184;DHT22;7693;49.266;7.104;2023-05-02T20:16:18;13.20;96.10
15184;DHT22;7693;49.266;7.104;2023-05-02T20:18:43;13.20;96.10
15184;DHT22;7693;49.266;7.104;2023-05-02T20:21:09;13.10;96.10
15184;DHT22;7693;49.266;7.104;2023-05-02T20:23:35;13.10;96.10
15184;DHT22;7693;49.266;7.104;2023-05-02T20:26:00;13.00;96.20
15184;DHT22;7693;49.266;7.104;2023-05-02T20:28:26;13.00;96.20
15184;DHT22;7693;49.266;7.104;2023-05-02T20:30:51;13.00;96.20
15184;DHT22;7693;49.266;7.104;2023-05-02T20:33:17;12.90;96.20
15184;DHT22;7693;49.266;7.104;2023-05-02T20:35:43;12.80;96.20
15184;DHT22;7693;49.266;7.104;2023-05-02T20:38:09;12.80;96.20
15184;DHT22;7693;49.266;7.104;2023-05-02T20:40:39;12.80;96.20
15184;DHT22;7693;49.266;7.104;2023-05-02T20:43:07;12.70;96.40
15184;DHT22;7693;49.266;7.104;2023-05-02T20:45:33;12.70;96.40
15184;DHT22;7693;49.266;7.104;2023-05-02T20:47:59;12.60;96.30
15184;DHT22;7693;49.266;7.104;2023-05-02T20:50:24;12.50;96.20
15184;DHT22;7693;49.266;7.104;2023-05-02T20:52:50;12.50;96.30
15184;DHT22;7693;49.266;7.104;2023-05-02T20:55:16;12.40;96.30
15184;DHT22;7693;49.266;7.104;2023-05-02T20:57:42;12.40;96.30
15184;DHT22;7693;49.266;7.104;2023-05-02T21:00:10;12.30;96.30
15184;DHT22;7693;49.266;7.104;2023-05-02T21:02:38;12.30;96.30
15184;DHT22;7693;49.266;7.104;2023-05-02T21:05:03;12.20;96.40
15184;DHT22;7693;49.266;7.104;2023-05-02T21:07:29;12.20;96.50
15184;DHT22;7693;49.266;7.104;2023-05-02T21:09:54;12.10;96.30
15184;DHT22;7693;49.266;7.104;2023-05-02T21:12:20;12.10;96.40
15184;DHT22;7693;49.266;7.104;2023-05-02T21:14:46;12.10;96.50
15184;DHT22;7693;49.266;7.104;2023-05-02T21:17:12;12.00;96.50
15184;DHT22;7693;49.266;7.104;2023-05-02T21:19:37;11.90;96.60
15184;DHT22;7693;49.266;7.104;2023-05-02T21:22:03;11.90;96.70
15184;DHT22;7693;49.266;7.104;2023-05-02T21:24:28;11.90;96.70
15184;DHT22;7693;49.266;7.104;2023-05-02T21:26:54;11.90;96.70
15184;DHT22;7693;49.266;7.104;2023-05-02T21:29:20;11.90;96.80
15184;DHT22;7693;49.266;7.104;2023-05-02T21:31:45;11.80;96.70
15184;DHT22;7693;49.266;7.104;2023-05-02T21:34:11;11.80;96.80
15184;DHT22;7693;49.266;7.104;2023-05-02T21:36:37;11.80;96.80
15184;DHT22;7693;49.266;7.104;2023-05-02T21:39:02;11.70;96.80
15184;DHT22;7693;49.266;7.104;2023-05-02T21:41:28;11.70;96.80
15184;DHT22;7693;49.266;7.104;2023-05-02T21:43:53;11.60;96.80
15184;DHT22;7693;49.266;7.104;2023-05-02T21:46:19;11.60;96.90
15184;DHT22;7693;49.266;7.104;2023-05-02T21:48:45;11.50;96.90
15184;DHT22;7693;49.266;7.104;2023-05-02T21:51:11;11.50;96.90
15184;DHT22;7693;49.266;7.104;2023-05-02T21:53:38;11.40;97.00
15184;DHT22;7693;49.266;7.104;2023-05-02T21:56:05;11.40;97.10
15184;DHT22;7693;49.266;7.104;2023-05-02T21:58:31;11.40;97.20
15184;DHT22;7693;49.266;7.104;2023-05-02T22:00:57;11.30;97.20
15184;DHT22;7693;49.266;7.104;2023-05-02T22:03:23;11.30;97.10
15184;DHT22;7693;49.266;7.104;2023-05-02T22:05:50;11.30;97.20
15184;DHT22;7693;49.266;7.104;2023-05-02T22:08:16;11.20;97.30
15184;DHT22;7693;49.266;7.104;2023-05-02T22:10:42;11.20;97.30
15184;DHT22;7693;49.266;7.104;2023-05-02T22:13:13;11.10;97.30
15184;DHT22;7693;49.266;7.104;2023-05-02T22:15:44;11.10;97.30
15184;DHT22;7693;49.266;7.104;2023-05-02T22:18:14;11.10;97.40
15184;DHT22;7693;49.266;7.104;2023-05-02T22:20:41;11.00;97.40
15184;DHT22;7693;49.266;7.104;2023-05-02T22:23:07;11.00;97.40
15184;DHT22;7693;49.266;7.104;2023-05-02T22:25:34;10.90;97.50
15184;DHT22;7693;49.266;7.104;2023-05-02T22:28:03;10.90;97.50
15184;DHT22;7693;49.266;7.104;2023-05-02T22:30:31;10.80;97.50
15184;DHT22;7693;49.266;7.104;2023-05-02T22:32:58;10.70;97.50
15184;DHT22;7693;49.266;7.104;2023-05-02T22:35:23;10.70;97.70
15184;DHT22;7693;49.266;7.104;2023-05-02T22:37:49;10.70;97.80
15184;DHT22;7693;49.266;7.104;2023-05-02T22:40:14;10.70;97.70
15184;DHT22;7693;49.266;7.104;2023-05-02T22:42:40;10.60;97.70
15184;DHT22;7693;49.266;7.104;2023-05-02T22:45:06;10.60;97.80
15184;DHT22;7693;49.266;7.104;2023-05-02T22:47:34;10.50;97.80
15184;DHT22;7693;49.266;7.104;2023-05-02T22:50:00;10.50;97.80
15184;DHT22;7693;49.266;7.104;2023-05-02T22:52:29;10.40;97.80
15184;DHT22;7693;49.266;7.104;2023-05-02T22:54:55;10.40;97.90
15184;DHT22;7693;49.266;7.104;2023-05-02T22:57:22;10.40;98.00
